This is the latest recevied weather packets stored in our database for station/object R1CBW-13. If no packets are shown the sender has not sent any weather packets the latest 10 day(s).
| Time | Temp. | Humidity | Pressure | Rain* | Wind** | Luminosity | Snow |
|---|---|---|---|---|---|---|---|
| 1777021057 | 7.22° C | 48% | 1000 hPa | 0 mm | - | - | - |
| 1777020997 | 7.22° C | 49% | 999.9 hPa | 0 mm | - | - | - |
| 1777020937 | 6.67° C | 49% | 1000.1 hPa | 0 mm | - | - | - |
| 1777020877 | 6.67° C | 49% | 1000.1 hPa | 0 mm | - | - | - |
| 1777020817 | 6.67° C | 48% | 1000.2 hPa | 0 mm | - | - | - |
| 1777020757 | 6.67° C | 48% | 1000.1 hPa | 0 mm | - | - | - |
| 1777020697 | 8.33° C | 48% | 1000 hPa | 0 mm | - | - | - |
| 1777020637 | 8.33° C | 49% | 1000 hPa | 0 mm | - | - | - |
| 1777020577 | 7.78° C | 49% | 999.9 hPa | 0 mm | - | - | - |
| 1777020517 | 7.78° C | 48% | 999.8 hPa | 0 mm | - | - | - |
| 1777020457 | 8.33° C | 47% | 999.8 hPa | 0 mm | - | - | - |
| 1777020397 | 8.33° C | 47% | 999.9 hPa | 0 mm | - | - | - |
| 1777020337 | 7.78° C | 48% | 999.9 hPa | 0 mm | - | - | - |
| 1777020277 | 7.78° C | 47% | 1000 hPa | 0 mm | - | - | - |
| 1777020217 | 7.78° C | 50% | 999.9 hPa | 0 mm | - | - | - |
| 1777020157 | 7.78° C | 49% | 999.9 hPa | 0 mm | - | - | - |
| 1777020097 | 8.33° C | 49% | 999.9 hPa | 0 mm | - | - | - |
| 1777020037 | 9.44° C | 47% | 999.9 hPa | 0 mm | - | - | - |
| 1777019977 | 9.44° C | 47% | 999.8 hPa | 0 mm | - | - | - |
| 1777019917 | 8.89° C | 48% | 1000 hPa | 0 mm | - | - | - |
| 1777019857 | 8.33° C | 49% | 1000 hPa | 0 mm | - | - | - |
| 1777019797 | 8.33° C | 49% | 999.9 hPa | 0 mm | - | - | - |
| 1777019737 | 7.78° C | 51% | 999.9 hPa | 0 mm | - | - | - |
| 1777019677 | 7.22° C | 52% | 1000 hPa | 0 mm | - | - | - |
| 1777019617 | 8.33° C | 48% | 999.9 hPa | 0 mm | - | - | - |
* Rain latest hour (hover to see other rain measurements)
** Current wind speed in m/s (hover to see current wind gust speed)